Fifty Lakes, Minnesota
Current Conditions -  °F | °C
As of 2:34 AM on Friday 28 Nov 2014 (Local Time) from KPWC Reporting Station
Overcast Overcast  
Wind Chill: -2°   Ceiling: 6000
Heat Index:   Visibility: 10mi
Dew Point:   Wind: 5mph
Humidity: 85%   Direction: 140°SE
Pressure: 30.11"   Gusts: NA
Location:  46.74°N, 94.09°W
Report Text: KPWC 280834Z AUTO 14004KT 10SM SCT050 OVC060 M14/M16 A3011 RMK AO2 P0001
Loading
Personal Weather Stations






























Interactive Weather Map New forecast layout! Learn more

10-Day Weather Forecast

Advertisements
Track Severe Weather on mobile